This is the latest recevied weather packets stored in our database for station/object KR4KUV. If no packets are shown the sender has not sent any weather packets the latest 10 day(s).
| Time | Temp. | Humidity | Pressure | Rain* | Wind** | Luminosity | Snow |
|---|---|---|---|---|---|---|---|
| 1788133894 | 25° C | 90% | 1021.9 hPa | 0 mm | - | 4 W/m² | - |
| 1788133589 | 25.56° C | 88% | 1021.9 hPa | 0 mm | - | 6 W/m² | - |
| 1788133285 | 26.11° C | 86% | 1021.7 hPa | 0 mm | - | 8 W/m² | - |
| 1788132980 | 26.67° C | 84% | 1021.8 hPa | 0 mm | - | 11 W/m² | - |
| 1788132675 | 26.67° C | 83% | 1021.9 hPa | 0 mm | - | 14 W/m² | - |
| 1788132372 | 27.22° C | 82% | 1021.8 hPa | 0 mm | - | 17 W/m² | - |
| 1788132068 | 27.22° C | 80% | 1022 hPa | 0 mm | - | 20 W/m² | - |
| 1788131763 | 27.22° C | 80% | 1021.8 hPa | 0 mm | - | 23 W/m² | - |
| 1788131462 | 27.78° C | 77% | 1022.1 hPa | 0 mm | - | 26 W/m² | - |
| 1788131158 | 27.78° C | 76% | 1022.1 hPa | 0 mm | - | 30 W/m² | - |
| 1788130852 | 28.33° C | 75% | 1022 hPa | 0 mm | - | 54 W/m² | - |
| 1788130548 | 28.89° C | 73% | 1022.1 hPa | 0 mm | - | 63 W/m² | - |
| 1788130242 | 29.44° C | 69% | 1021.8 hPa | 0 mm | - | 73 W/m² | - |
| 1788129940 | 30° C | 70% | 1021.9 hPa | 0 mm | - | 84 W/m² | - |
| 1788129637 | 30.56° C | 68% | 1021.8 hPa | 0 mm | - | 96 W/m² | - |
| 1788129333 | 30° C | 68% | 1021.8 hPa | 0 mm | - | 108 W/m² | - |
| 1788129028 | 30° C | 66% | 1021.8 hPa | 0 mm | - | 121 W/m² | - |
| 1788128722 | 30° C | 67% | 1021.8 hPa | 0 mm | - | 135 W/m² | - |
| 1788128418 | 30.56° C | 66% | 1021.6 hPa | 0 mm | - | 149 W/m² | - |
| 1788128114 | 30° C | 66% | 1021.6 hPa | 0 mm | - | 166 W/m² | - |
| 1788127810 | 30.56° C | 65% | 1021.6 hPa | 0 mm | - | 179 W/m² | - |
| 1788127509 | 30.56° C | 64% | 1021.6 hPa | 0 mm | - | 195 W/m² | - |
| 1788127208 | 30.56° C | 66% | 1021.5 hPa | 0 mm | - | 210 W/m² | - |
| 1788126902 | 30° C | 67% | 1021.7 hPa | 0 mm | - | 227 W/m² | - |
| 1788126596 | 30° C | 65% | 1021.7 hPa | 0 mm | - | 246 W/m² | - |
* Rain latest hour (hover to see other rain measurements)
** Current wind speed in m/s (hover to see current wind gust speed)